National Weather Service Raw Text Product

Displaying AFOS PIL: TAFALO Received: 2018-02-09 05:26 UTC


614 
FTUS43 KDMX 090526
TAFALO
TAF
KALO 090526Z 0906/1006 03011KT 1/2SM SN OVC006
     FM090900 03012G18KT 3SM -SN OVC011
      TEMPO 0909/0911 1SM -SN OVC006
     FM091100 02012G18KT P6SM OVC023
     FM091600 01010G16KT P6SM SCT150
     FM100000 35007KT P6SM BKN150=